Time;durP1;ratioP1;P1;durP2;ratioP2;P2;SDS_P1;SDS_P2;PMS_P1;PMS_P2;Temp;Humidity;BMP_temperature;BMP_pressure;BME280_temperature;BME280_humidity;BME280_pressure;Samples;Min_cycle;Max_cycle;Signal;HPM_P1;HPM_P2
2023/03/07 00:00:37;;;;;;;8.37;4.40;;;;;;;;;;5051413;28;20407;-65
2023/03/07 00:03:04;;;;;;;15.25;6.32;;;;;;;;;;5047160;28;20052;-65
2023/03/07 00:05:31;;;;;;;6.65;4.75;;;;;;;;;;5050784;28;20056;-65
2023/03/07 00:07:57;;;;;;;10.20;4.10;;;;;;;;;;5045120;28;20049;-64
2023/03/07 00:10:24;;;;;;;10.00;5.78;;;;;;;;;;5051231;28;20053;-65
2023/03/07 00:12:50;;;;;;;19.52;7.25;;;;;;;;;;5043328;28;20038;-65
2023/03/07 00:15:17;;;;;;;18.42;8.68;;;;;;;;;;5050693;28;20045;-65
2023/03/07 00:17:43;;;;;;;7.70;5.28;;;;;;;;;;5041898;28;20048;-65
2023/03/07 00:20:10;;;;;;;16.67;8.40;;;;;;;;;;5051176;28;20055;-65
2023/03/07 00:22:36;;;;;;;13.27;7.38;;;;;;;;;;5045731;28;20140;-65
2023/03/07 00:25:03;;;;;;;9.65;6.40;;;;;;;;;;5044810;28;20095;-65
2023/03/07 00:27:30;;;;;;;11.40;9.32;;;;;;;;;;5044051;28;20145;-65
2023/03/07 00:29:57;;;;;;;17.08;11.85;;;;;;;;;;5038116;28;20051;-64
2023/03/07 00:32:23;;;;;;;8.98;6.05;;;;;;;;;;5045427;28;20481;-65
2023/03/07 00:34:50;;;;;;;15.45;7.40;;;;;;;;;;5033985;28;20053;-65
2023/03/07 00:37:16;;;;;;;6.97;4.82;;;;;;;;;;5048280;28;20511;-65
2023/03/07 00:39:43;;;;;;;10.43;5.22;;;;;;;;;;5040880;28;20051;-65
2023/03/07 00:42:09;;;;;;;10.02;5.35;;;;;;;;;;5049398;28;20049;-65
2023/03/07 00:44:35;;;;;;;11.85;5.13;;;;;;;;;;5027691;28;20049;-65
2023/03/07 00:47:02;;;;;;;8.52;4.03;;;;;;;;;;5054245;28;20667;-65
2023/03/07 00:49:29;;;;;;;7.10;3.95;;;;;;;;;;5027006;28;20055;-65
2023/03/07 00:51:55;;;;;;;10.60;4.70;;;;;;;;;;5054552;28;20045;-65
2023/03/07 00:54:22;;;;;;;8.05;4.43;;;;;;;;;;5024559;28;20285;-65
2023/03/07 00:56:48;;;;;;;5.22;3.70;;;;;;;;;;5054374;28;20059;-65
2023/03/07 00:59:15;;;;;;;7.82;4.32;;;;;;;;;;5051345;28;20137;-64
2023/03/07 01:01:41;;;;;;;5.57;4.10;;;;;;;;;;5054492;28;20049;-65
2023/03/07 01:04:07;;;;;;;10.85;5.75;;;;;;;;;;5050349;28;20051;-65
2023/03/07 01:06:34;;;;;;;11.23;6.15;;;;;;;;;;5053729;28;20041;-64
2023/03/07 01:09:02;;;;;;;8.70;4.32;;;;;;;;;;5045490;28;20063;-64
2023/03/07 01:11:29;;;;;;;5.32;3.13;;;;;;;;;;5053143;28;20049;-65
2023/03/07 01:13:56;;;;;;;8.52;4.00;;;;;;;;;;5046093;28;20045;-65
2023/03/07 01:16:24;;;;;;;7.05;4.10;;;;;;;;;;5052683;28;20416;-64
2023/03/07 01:18:51;;;;;;;10.40;5.32;;;;;;;;;;5044249;28;20048;-65
2023/03/07 01:21:23;;;;;;;17.42;7.13;;;;;;;;;;5054009;28;20406;-65
2023/03/07 01:23:49;;;;;;;11.05;5.75;;;;;;;;;;5034877;28;20131;-65
2023/03/07 01:26:17;;;;;;;10.38;5.10;;;;;;;;;;5053509;28;20049;-65
2023/03/07 01:28:44;;;;;;;12.75;5.45;;;;;;;;;;5042008;28;20056;-65
2023/03/07 01:31:11;;;;;;;16.98;8.27;;;;;;;;;;5052768;28;20041;-65
2023/03/07 01:33:37;;;;;;;15.40;7.72;;;;;;;;;;5030979;28;20137;-65
2023/03/07 01:36:04;;;;;;;13.18;8.35;;;;;;;;;;5053362;28;20396;-65
2023/03/07 01:38:32;;;;;;;12.65;6.10;;;;;;;;;;5029779;28;20057;-65
2023/03/07 01:41:00;;;;;;;12.45;6.53;;;;;;;;;;5026161;28;20435;-65
2023/03/07 01:43:29;;;;;;;27.27;8.93;;;;;;;;;;5041152;28;20053;-66
2023/03/07 01:46:14;;;;;;;15.23;7.20;;;;;;;;;;5051963;28;20049;-66
2023/03/07 01:48:40;;;;;;;11.35;6.05;;;;;;;;;;5038733;28;20052;-66
2023/03/07 01:51:06;;;;;;;11.90;6.93;;;;;;;;;;5051326;28;20048;-65
2023/03/07 01:53:33;;;;;;;16.35;9.52;;;;;;;;;;5029096;28;20508;-65
2023/03/07 01:56:00;;;;;;;12.80;7.05;;;;;;;;;;5047781;28;20051;-65
2023/03/07 01:58:27;;;;;;;10.97;5.57;;;;;;;;;;5051011;28;20045;-65
2023/03/07 02:00:54;;;;;;;13.18;7.47;;;;;;;;;;5052984;28;20289;-66
2023/03/07 02:03:28;;;;;;;15.23;10.65;;;;;;;;;;5050305;28;20053;-66
2023/03/07 02:05:57;;;;;;;21.40;8.38;;;;;;;;;;5052408;28;20088;-66
2023/03/07 02:08:25;;;;;;;17.33;10.77;;;;;;;;;;5048598;28;20057;-66
2023/03/07 02:10:51;;;;;;;;;;;;;;;;;;5052669;28;20072;-66
2023/03/07 02:13:17;;;;;;;12.15;5.85;;;;;;;;;;5045412;28;19925;-66
2023/03/07 02:15:44;;;;;;;17.60;8.68;;;;;;;;;;5052395;28;20052;-65
2023/03/07 02:18:13;;;;;;;13.98;6.65;;;;;;;;;;5043868;28;20080;-66
2023/03/07 02:20:57;;;;;;;18.75;9.13;;;;;;;;;;5053039;28;20388;-66
2023/03/07 02:23:37;;;;;;;19.42;10.57;;;;;;;;;;5033545;28;20576;-66
2023/03/07 02:26:12;;;;;;;16.65;8.23;;;;;;;;;;5051877;28;20056;-66
2023/03/07 02:28:41;;;;;;;18.10;10.57;;;;;;;;;;5038025;28;20057;-66
2023/03/07 02:31:08;;;;;;;15.70;7.65;;;;;;;;;;5051830;28;20063;-66
2023/03/07 02:33:35;;;;;;;11.98;6.85;;;;;;;;;;5048996;28;20045;-66
2023/03/07 02:36:06;;;;;;;14.13;7.70;;;;;;;;;;5052247;28;20041;-66
2023/03/07 02:38:36;;;;;;;14.63;7.97;;;;;;;;;;5038904;28;20111;-65
2023/03/07 02:41:03;;;;;;;14.20;6.70;;;;;;;;;;5051248;28;20658;-66
2023/03/07 02:43:29;;;;;;;23.10;13.30;;;;;;;;;;5039944;28;20057;-66
2023/03/07 02:45:56;;;;;;;27.98;12.95;;;;;;;;;;5048827;28;20508;-66
2023/03/07 02:48:22;;;;;;;14.13;7.60;;;;;;;;;;5049494;28;20080;-66
2023/03/07 02:50:49;;;;;;;19.58;8.77;;;;;;;;;;5051963;28;20056;-66
2023/03/07 02:53:15;;;;;;;18.50;9.07;;;;;;;;;;5048312;28;20052;-66
2023/03/07 02:55:41;;;;;;;45.75;24.52;;;;;;;;;;5050737;28;20055;-66
2023/03/07 02:58:08;;;;;;;36.10;17.65;;;;;;;;;;5047227;28;20051;-66
2023/03/07 03:00:34;;;;;;;32.05;17.75;;;;;;;;;;5052167;28;20060;-66
2023/03/07 03:03:00;;;;;;;20.70;9.45;;;;;;;;;;5043743;28;20412;-66
2023/03/07 03:05:27;;;;;;;17.15;7.50;;;;;;;;;;5051558;28;20053;-66
2023/03/07 03:07:53;;;;;;;10.27;5.57;;;;;;;;;;5040467;28;20524;-66
2023/03/07 03:10:20;;;;;;;9.00;5.25;;;;;;;;;;5051943;28;20059;-66
2023/03/07 03:12:46;;;;;;;7.75;4.93;;;;;;;;;;5044999;28;20053;-66
2023/03/07 03:15:13;;;;;;;6.63;4.50;;;;;;;;;;5050888;28;20049;-66
2023/03/07 03:17:39;;;;;;;5.07;4.20;;;;;;;;;;5045632;28;20055;-66
2023/03/07 03:20:07;;;;;;;4.10;3.22;;;;;;;;;;5049273;28;20503;-66
2023/03/07 03:22:34;;;;;;;3.63;2.75;;;;;;;;;;5046459;28;20049;-66
2023/03/07 03:25:00;;;;;;;2.83;2.00;;;;;;;;;;5047246;28;20051;-66
2023/03/07 03:27:26;;;;;;;3.17;2.10;;;;;;;;;;5046051;28;20421;-66
2023/03/07 03:29:53;;;;;;;2.22;1.83;;;;;;;;;;5040251;28;20056;-66
2023/03/07 03:32:19;;;;;;;2.35;1.60;;;;;;;;;;5048341;28;20053;-66
2023/03/07 03:34:46;;;;;;;2.78;1.70;;;;;;;;;;5043878;28;20045;-66
2023/03/07 03:37:12;;;;;;;2.20;1.95;;;;;;;;;;5049305;28;20124;-66
2023/03/07 03:39:39;;;;;;;2.70;1.50;;;;;;;;;;5040821;28;20504;-66
2023/03/07 03:42:06;;;;;;;2.20;1.50;;;;;;;;;;5051078;28;20132;-66
2023/03/07 03:44:32;;;;;;;2.25;1.63;;;;;;;;;;5027332;28;20041;-66
2023/03/07 03:50:20;;;;;;;2.75;2.00;;;;;;;;;;5038563;28;20044;-66
2023/03/07 03:52:47;;;;;;;2.90;1.98;;;;;;;;;;5039331;28;20046;-66
2023/03/07 03:55:13;;;;;;;4.55;2.28;;;;;;;;;;5035183;28;20049;-65
2023/03/07 03:57:39;;;;;;;4.90;2.35;;;;;;;;;;5049201;28;20135;-66
2023/03/07 04:00:08;;;;;;;3.53;2.47;;;;;;;;;;5051307;28;20132;-65
2023/03/07 04:02:34;;;;;;;4.13;2.50;;;;;;;;;;5048076;28;20132;-65
2023/03/07 04:05:01;;;;;;;5.70;3.50;;;;;;;;;;5050079;28;20048;-66
2023/03/07 04:07:28;;;;;;;4.43;2.92;;;;;;;;;;5047378;28;20064;-66
2023/03/07 04:09:54;;;;;;;6.00;3.03;;;;;;;;;;5050442;28;20453;-66
2023/03/07 04:12:20;;;;;;;5.45;2.95;;;;;;;;;;5047878;28;20051;-65
2023/03/07 04:14:47;;;;;;;4.40;3.10;;;;;;;;;;5049996;28;20037;-65
2023/03/07 04:17:13;;;;;;;4.30;3.10;;;;;;;;;;5048660;28;20052;-65
2023/03/07 04:19:39;;;;;;;4.43;2.63;;;;;;;;;;5049254;28;20041;-65
2023/03/07 04:22:06;;;;;;;5.50;3.45;;;;;;;;;;5054598;28;20051;-65
2023/03/07 04:24:32;;;;;;;7.72;3.53;;;;;;;;;;5049488;28;20175;-65
2023/03/07 04:26:59;;;;;;;5.75;2.95;;;;;;;;;;5054876;28;20051;-65
2023/03/07 04:29:25;;;;;;;4.72;2.78;;;;;;;;;;5046297;28;20053;-65
2023/03/07 04:31:51;;;;;;;3.10;2.65;;;;;;;;;;5054562;28;20049;-65
2023/03/07 04:34:18;;;;;;;3.67;2.40;;;;;;;;;;5046446;28;20045;-65
2023/03/07 04:36:44;;;;;;;4.28;2.33;;;;;;;;;;5054495;28;20049;-65
2023/03/07 04:39:11;;;;;;;3.63;2.78;;;;;;;;;;5040594;28;20053;-66
2023/03/07 04:41:37;;;;;;;2.72;2.50;;;;;;;;;;5054066;28;20041;-66
2023/03/07 04:44:04;;;;;;;5.30;3.15;;;;;;;;;;5040330;28;20049;-65
2023/03/07 04:46:30;;;;;;;6.40;4.57;;;;;;;;;;5054330;28;20136;-65
2023/03/07 04:48:56;;;;;;;5.03;4.05;;;;;;;;;;5028142;28;20064;-65
2023/03/07 04:51:23;;;;;;;9.45;5.20;;;;;;;;;;5054132;28;20420;-65
2023/03/07 04:53:49;;;;;;;7.18;4.43;;;;;;;;;;5026456;28;20080;-65
2023/03/07 04:56:16;;;;;;;4.88;3.60;;;;;;;;;;5054291;28;20057;-65
2023/03/07 04:58:42;;;;;;;3.17;2.40;;;;;;;;;;5052386;28;20080;-66
2023/03/07 05:01:09;;;;;;;3.17;2.80;;;;;;;;;;5053950;28;20247;-65
2023/03/07 05:03:35;;;;;;;6.78;3.72;;;;;;;;;;5051058;28;20060;-65
2023/03/07 05:06:03;;;;;;;4.78;3.50;;;;;;;;;;5039500;28;20059;-65
2023/03/07 05:08:29;;;;;;;6.03;4.13;;;;;;;;;;5050015;28;20139;-65
2023/03/07 05:10:56;;;;;;;6.93;4.00;;;;;;;;;;5053592;28;20055;-65
2023/03/07 05:13:22;;;;;;;4.70;4.28;;;;;;;;;;5049411;28;20055;-65
2023/03/07 05:15:53;;;;;;;4.63;3.90;;;;;;;;;;5053940;28;20136;-65
2023/03/07 05:18:19;;;;;;;6.72;4.78;;;;;;;;;;5048438;28;20052;-65
2023/03/07 05:20:46;;;;;;;5.82;4.15;;;;;;;;;;5053285;28;20493;-65
2023/03/07 05:23:12;;;;;;;4.88;3.45;;;;;;;;;;5044182;28;20052;-65
2023/03/07 05:25:38;;;;;;;6.30;3.65;;;;;;;;;;5053738;28;20053;-65
2023/03/07 05:28:07;;;;;;;4.53;3.33;;;;;;;;;;5046479;28;20056;-65
2023/03/07 05:30:34;;;;;;;3.10;2.58;;;;;;;;;;5053275;28;20049;-65
2023/03/07 05:33:00;;;;;;;3.40;2.35;;;;;;;;;;5045685;28;20045;-65
2023/03/07 05:35:26;;;;;;;3.72;2.97;;;;;;;;;;5053699;28;20114;-65
2023/03/07 05:37:53;;;;;;;5.25;2.90;;;;;;;;;;5045838;28;20476;-65
2023/03/07 05:40:19;;;;;;;5.53;3.03;;;;;;;;;;5048119;28;20060;-65
2023/03/07 05:42:45;;;;;;;3.55;2.58;;;;;;;;;;5042340;28;20053;-65
2023/03/07 05:45:12;;;;;;;3.25;2.45;;;;;;;;;;5040170;28;20531;-65
2023/03/07 05:47:38;;;;;;;2.40;2.17;;;;;;;;;;5047432;28;20073;-65
2023/03/07 05:50:05;;;;;;;3.30;2.30;;;;;;;;;;5044313;28;20057;-65
2023/03/07 05:52:32;;;;;;;4.80;3.22;;;;;;;;;;5048495;28;20071;-65
2023/03/07 05:54:58;;;;;;;4.47;3.50;;;;;;;;;;5043197;28;20052;-65
2023/03/07 05:57:24;;;;;;;4.88;3.53;;;;;;;;;;5051239;28;20045;-65
2023/03/07 05:59:51;;;;;;;5.22;3.50;;;;;;;;;;5052445;28;20041;-65
2023/03/07 06:02:17;;;;;;;4.03;3.00;;;;;;;;;;5050322;28;20049;-65
2023/03/07 06:04:45;;;;;;;2.83;2.20;;;;;;;;;;5039160;28;20103;-65
2023/03/07 06:07:12;;;;;;;3.35;2.42;;;;;;;;;;5051342;28;20084;-65
2023/03/07 06:09:38;;;;;;;3.22;2.88;;;;;;;;;;5049480;28;20040;-65
2023/03/07 06:12:04;;;;;;;4.75;2.83;;;;;;;;;;5053000;28;20044;-65
2023/03/07 06:14:31;;;;;;;2.60;2.40;;;;;;;;;;5046261;28;20140;-65
2023/03/07 06:16:57;;;;;;;2.97;2.60;;;;;;;;;;5052957;28;20049;-65
2023/03/07 06:19:24;;;;;;;7.20;2.92;;;;;;;;;;5046604;28;20056;-65
2023/03/07 06:21:50;;;;;;;4.18;2.70;;;;;;;;;;5051187;28;20052;-65
2023/03/07 06:24:16;;;;;;;2.35;1.85;;;;;;;;;;5046257;28;20408;-65
2023/03/07 06:26:43;;;;;;;3.22;2.15;;;;;;;;;;5052506;28;20497;-65
2023/03/07 06:29:09;;;;;;;2.78;2.03;;;;;;;;;;5045380;28;20084;-65
2023/03/07 06:31:35;;;;;;;3.55;2.15;;;;;;;;;;5052131;28;20556;-65
2023/03/07 06:34:02;;;;;;;4.47;2.50;;;;;;;;;;5044316;28;20056;-65
2023/03/07 06:36:28;;;;;;;4.50;3.50;;;;;;;;;;5052236;28;20408;-65
2023/03/07 06:38:55;;;;;;;6.38;3.53;;;;;;;;;;5029272;28;20049;-65
2023/03/07 06:41:22;;;;;;;4.95;3.70;;;;;;;;;;5052017;28;20132;-65
2023/03/07 06:43:52;;;;;;;4.95;3.53;;;;;;;;;;5027440;28;20085;-65
2023/03/07 06:46:19;;;;;;;7.10;3.50;;;;;;;;;;5052103;28;20106;-65
2023/03/07 06:48:46;;;;;;;4.95;3.22;;;;;;;;;;5037357;28;20114;-65
2023/03/07 06:51:12;;;;;;;3.72;3.40;;;;;;;;;;5052023;28;20052;-64
2023/03/07 06:53:39;;;;;;;4.72;3.35;;;;;;;;;;5026551;28;20494;-64
2023/03/07 06:56:06;;;;;;;5.20;3.38;;;;;;;;;;5050136;28;20511;-65
2023/03/07 06:58:32;;;;;;;3.03;2.70;;;;;;;;;;5049709;28;20049;-65
2023/03/07 07:00:58;;;;;;;4.53;3.50;;;;;;;;;;5051677;28;20060;-65
2023/03/07 07:03:25;;;;;;;3.63;3.15;;;;;;;;;;5048507;28;20060;-65
2023/03/07 07:05:51;;;;;;;3.22;3.00;;;;;;;;;;5051103;28;20045;-65
2023/03/07 07:08:18;;;;;;;4.53;3.20;;;;;;;;;;5047584;28;20053;-65
2023/03/07 07:10:44;;;;;;;3.75;3.35;;;;;;;;;;5051156;28;20053;-65
2023/03/07 07:13:11;;;;;;;2.80;2.58;;;;;;;;;;5046812;28;20136;-65
2023/03/07 07:15:37;;;;;;;5.20;2.90;;;;;;;;;;5051092;28;20049;-65
2023/03/07 07:18:04;;;;;;;3.00;2.63;;;;;;;;;;5045612;28;20055;-65
2023/03/07 07:20:30;;;;;;;5.03;2.90;;;;;;;;;;5050249;28;20045;-64
2023/03/07 07:22:56;;;;;;;3.63;3.03;;;;;;;;;;5039346;28;20045;-64
2023/03/07 07:25:23;;;;;;;4.68;3.50;;;;;;;;;;5050495;28;20041;-64
2023/03/07 07:27:49;;;;;;;5.10;3.28;;;;;;;;;;5049694;28;20041;-63
2023/03/07 07:30:15;;;;;;;3.95;3.60;;;;;;;;;;5051117;28;20049;-64
2023/03/07 07:32:43;;;;;;;4.18;3.78;;;;;;;;;;5048451;28;20415;-65
2023/03/07 07:35:10;;;;;;;;;;;;;;;;;;5051789;28;20049;-64
2023/03/07 07:37:36;;;;;;;5.45;4.28;;;;;;;;;;5042948;28;20403;-64
2023/03/07 07:40:04;;;;;;;4.60;3.83;;;;;;;;;;5031499;28;20421;-64
2023/03/07 07:42:30;;;;;;;8.38;5.38;;;;;;;;;;5027845;28;20417;-65
2023/03/07 07:44:57;;;;;;;4.75;3.80;;;;;;;;;;5041699;28;20106;-64
2023/03/07 07:47:24;;;;;;;6.50;4.30;;;;;;;;;;5048599;28;20049;-63
2023/03/07 07:49:50;;;;;;;5.05;4.53;;;;;;;;;;5038240;28;20057;-65
2023/03/07 07:52:16;;;;;;;6.05;5.10;;;;;;;;;;5048844;28;20041;-65
2023/03/07 07:54:43;;;;;;;7.10;5.07;;;;;;;;;;5053104;28;20128;-65
2023/03/07 07:57:09;;;;;;;5.88;4.63;;;;;;;;;;5054471;28;20059;-65
2023/03/07 07:59:35;;;;;;;6.57;5.13;;;;;;;;;;5033747;28;20054;-64
2023/03/07 08:02:02;;;;;;;6.28;4.30;;;;;;;;;;5034939;28;20056;-65
2023/03/07 08:04:29;;;;;;;4.32;3.92;;;;;;;;;;5033520;28;20042;-65
2023/03/07 08:06:55;;;;;;;5.88;3.78;;;;;;;;;;5034593;28;20042;-65
2023/03/07 08:09:21;;;;;;;4.70;4.18;;;;;;;;;;5031584;28;20041;-65
2023/03/07 08:11:48;;;;;;;4.18;3.78;;;;;;;;;;5034316;28;20489;-64
2023/03/07 08:14:14;;;;;;;5.65;3.90;;;;;;;;;;5043638;28;20485;-64
2023/03/07 08:16:40;;;;;;;5.43;3.33;;;;;;;;;;5040552;28;20401;-65
2023/03/07 08:19:07;;;;;;;4.47;3.28;;;;;;;;;;5031693;28;20045;-64
2023/03/07 08:21:33;;;;;;;5.82;3.90;;;;;;;;;;5034133;28;20048;-65
2023/03/07 08:24:00;;;;;;;5.03;3.28;;;;;;;;;;5036764;28;20080;-65
2023/03/07 08:26:26;;;;;;;5.07;2.90;;;;;;;;;;5043672;28;20080;-65
2023/03/07 08:28:52;;;;;;;4.38;3.00;;;;;;;;;;5038060;28;20052;-65
2023/03/07 08:31:22;;;;;;;5.80;4.72;;;;;;;;;;5054351;28;20045;-64
2023/03/07 08:33:49;;;;;;;10.70;7.22;;;;;;;;;;5025984;28;20134;-64
2023/03/07 08:36:15;;;;;;;9.80;7.90;;;;;;;;;;5054448;28;20416;-65
2023/03/07 08:38:42;;;;;;;11.50;8.60;;;;;;;;;;5041391;28;20132;-65
2023/03/07 08:41:08;;;;;;;14.07;10.52;;;;;;;;;;5038236;28;20075;-65
2023/03/07 08:43:35;;;;;;;14.27;12.85;;;;;;;;;;5039771;28;20559;-65
2023/03/07 08:46:02;;;;;;;16.00;13.17;;;;;;;;;;5051852;28;20071;-65
2023/03/07 08:48:29;;;;;;;8.98;7.47;;;;;;;;;;5026735;28;20177;-65
2023/03/07 08:50:55;;;;;;;10.15;7.47;;;;;;;;;;5053037;28;20496;-65
2023/03/07 08:53:22;;;;;;;9.30;7.13;;;;;;;;;;5041435;28;20091;-65
2023/03/07 08:55:48;;;;;;;9.82;6.88;;;;;;;;;;5042095;28;20516;-65
2023/03/07 08:58:15;;;;;;;9.43;5.53;;;;;;;;;;5027686;28;20081;-65
2023/03/07 09:00:41;;;;;;;7.20;4.53;;;;;;;;;;5046804;28;20044;-65
2023/03/07 09:03:07;;;;;;;4.88;3.90;;;;;;;;;;5050500;28;20051;-65
2023/03/07 09:05:38;;;;;;;3.55;3.00;;;;;;;;;;5052538;28;20049;-65
2023/03/07 09:08:05;;;;;;;3.08;2.70;;;;;;;;;;5049641;28;20135;-65
2023/03/07 09:10:31;;;;;;;4.13;2.78;;;;;;;;;;5052482;28;20059;-65
2023/03/07 09:12:58;;;;;;;5.15;3.45;;;;;;;;;;5048946;28;20063;-65
2023/03/07 09:15:24;;;;;;;6.07;3.60;;;;;;;;;;5052653;28;20041;-65
2023/03/07 09:17:50;;;;;;;10.25;8.77;;;;;;;;;;5045831;28;20046;-65
2023/03/07 09:20:17;;;;;;;9.18;7.20;;;;;;;;;;5044996;28;20045;-64
2023/03/07 09:22:45;;;;;;;6.78;4.22;;;;;;;;;;5040940;28;20460;-64
2023/03/07 09:25:12;;;;;;;6.28;3.40;;;;;;;;;;5052020;28;20558;-64
2023/03/07 09:27:38;;;;;;;7.05;3.95;;;;;;;;;;5039696;28;20057;-64
2023/03/07 09:30:05;;;;;;;5.40;3.40;;;;;;;;;;5049380;28;20063;-65
2023/03/07 09:32:32;;;;;;;5.18;3.88;;;;;;;;;;5051929;28;20053;-64
2023/03/07 09:34:58;;;;;;;3.10;2.57;;;;;;;;;;5049916;28;20045;-64
2023/03/07 09:37:25;;;;;;;2.80;2.60;;;;;;;;;;5042387;28;20041;-64
2023/03/07 09:39:51;;;;;;;3.92;2.67;;;;;;;;;;5050531;28;20051;-64
2023/03/07 09:42:26;;;;;;;3.38;2.38;;;;;;;;;;5052235;28;20045;-64
2023/03/07 09:44:53;;;;;;;3.75;2.70;;;;;;;;;;5052007;28;20053;-64
2023/03/07 09:47:22;;;;;;;2.38;2.03;;;;;;;;;;5051649;28;20059;-64
2023/03/07 09:49:49;;;;;;;5.03;2.65;;;;;;;;;;4999324;28;1109875;-64
2023/03/07 09:52:17;;;;;;;4.83;2.63;;;;;;;;;;5052179;28;20424;-64
2023/03/07 09:54:52;;;;;;;3.50;2.40;;;;;;;;;;5052859;28;20056;-64
2023/03/07 09:57:21;;;;;;;3.25;2.47;;;;;;;;;;5053003;28;20062;-64
2023/03/07 09:59:50;;;;;;;3.45;2.30;;;;;;;;;;5044076;28;20045;-64
2023/03/07 10:02:37;;;;;;;2.95;2.00;;;;;;;;;;5044599;28;20500;-64
2023/03/07 10:05:07;;;;;;;2.33;2.13;;;;;;;;;;5052689;28;20057;-64
2023/03/07 10:07:34;;;;;;;3.17;2.88;;;;;;;;;;5036167;28;20085;-64
2023/03/07 10:10:03;;;;;;;4.75;3.40;;;;;;;;;;5052564;28;20041;-64
2023/03/07 10:12:48;;;;;;;3.83;2.70;;;;;;;;;;5052260;28;20515;-64
2023/03/07 10:15:15;;;;;;;4.07;2.88;;;;;;;;;;5033322;28;20044;-65
2023/03/07 10:17:41;;;;;;;4.35;2.58;;;;;;;;;;5050789;28;20045;-64
2023/03/07 10:20:23;;;;;;;2.85;2.55;;;;;;;;;;5052553;28;20439;-64
2023/03/07 10:22:58;;;;;;;3.45;2.22;;;;;;;;;;5041720;28;20064;-65
2023/03/07 10:25:24;;;;;;;2.92;2.45;;;;;;;;;;5041573;28;20107;-65
2023/03/07 10:27:52;;;;;;;3.22;2.20;;;;;;;;;;5038572;28;20049;-65
2023/03/07 10:30:19;;;;;;;4.57;2.25;;;;;;;;;;5051294;28;20389;-65
2023/03/07 10:32:47;;;;;;;4.82;2.22;;;;;;;;;;5038292;28;20152;-65
2023/03/07 10:35:16;;;;;;;3.97;3.63;;;;;;;;;;5052101;28;20077;-65
2023/03/07 10:38:01;;;;;;;6.88;4.55;;;;;;;;;;5049720;28;20041;-65
2023/03/07 10:40:30;;;;;;;4.93;4.53;;;;;;;;;;5051762;28;20055;-66
2023/03/07 10:42:57;;;;;;;3.72;1.80;;;;;;;;;;5038476;28;20049;-66
2023/03/07 10:45:26;;;;;;;3.72;1.50;;;;;;;;;;5052072;28;20048;-66
2023/03/07 10:47:52;;;;;;;2.25;1.20;;;;;;;;;;5042892;28;20045;-65
2023/03/07 10:50:50;;;;;;;4.20;1.08;;;;;;;;;;5051858;28;20067;-66
2023/03/07 10:53:27;;;;;;;2.50;0.90;;;;;;;;;;5030284;28;20057;-66
2023/03/07 10:56:20;;;;;;;1.63;1.20;;;;;;;;;;5051877;28;20047;-65
2023/03/07 10:59:03;;;;;;;1.70;0.82;;;;;;;;;;5037876;28;20059;-65
2023/03/07 11:01:30;;;;;;;1.20;1.10;;;;;;;;;;5045598;28;20049;-66
2023/03/07 11:03:58;;;;;;;2.13;0.80;;;;;;;;;;5042755;28;20132;-65
2023/03/07 11:06:24;;;;;;;2.33;0.80;;;;;;;;;;5051418;28;20285;-66
2023/03/07 11:08:51;;;;;;;2.13;0.98;;;;;;;;;;5050951;28;20055;-66
2023/03/07 11:11:30;;;;;;;2.47;1.00;;;;;;;;;;5023667;28;20045;-65
2023/03/07 11:14:07;;;;;;;1.20;1.00;;;;;;;;;;5051958;28;20076;-65
2023/03/07 11:16:38;;;;;;;0.95;0.65;;;;;;;;;;5051394;28;20045;-65
2023/03/07 11:19:23;;;;;;;1.92;1.10;;;;;;;;;;5050970;28;20053;-65
2023/03/07 11:21:53;;;;;;;3.25;1.77;;;;;;;;;;5024577;28;20392;-65
2023/03/07 11:24:27;;;;;;;3.65;1.20;;;;;;;;;;5047377;28;20068;-65
2023/03/07 11:26:55;;;;;;;2.33;1.00;;;;;;;;;;5025354;28;20067;-65
2023/03/07 11:29:21;;;;;;;2.65;0.88;;;;;;;;;;5046766;28;20140;-65
2023/03/07 11:31:47;;;;;;;1.73;0.75;;;;;;;;;;5047918;28;20468;-66
2023/03/07 11:34:14;;;;;;;3.13;1.17;;;;;;;;;;5048626;28;20052;-66
2023/03/07 11:36:43;;;;;;;12.65;5.63;;;;;;;;;;5048465;28;20047;-65
2023/03/07 11:39:16;;;;;;;4.32;1.17;;;;;;;;;;5049201;28;20071;-66
2023/03/07 11:41:47;;;;;;;1.40;0.95;;;;;;;;;;5043682;28;20131;-66
2023/03/07 11:44:13;;;;;;;1.45;1.10;;;;;;;;;;5048900;28;20049;-66
2023/03/07 11:46:59;;;;;;;1.63;0.82;;;;;;;;;;5042770;28;20057;-66
2023/03/07 11:49:28;;;;;;;0.90;0.80;;;;;;;;;;5047217;28;20041;-66
2023/03/07 11:52:23;;;;;;;3.45;0.80;;;;;;;;;;5043399;28;20408;-66
2023/03/07 11:54:55;;;;;;;3.35;1.30;;;;;;;;;;5035422;28;20046;-66
2023/03/07 11:57:31;;;;;;;2.30;0.60;;;;;;;;;;5046618;28;20404;-66
2023/03/07 12:00:16;;;;;;;1.17;0.68;;;;;;;;;;5042705;28;20053;-66
2023/03/07 12:02:58;;;;;;;1.02;0.82;;;;;;;;;;5048407;28;20450;-66
2023/03/07 12:05:30;;;;;;;1.60;0.73;;;;;;;;;;5038918;28;20049;-66
2023/03/07 12:08:26;;;;;;;1.27;0.55;;;;;;;;;;5049568;28;20485;-66
2023/03/07 12:10:58;;;;;;;1.23;0.52;;;;;;;;;;5016302;28;20060;-66
2023/03/07 12:13:37;;;;;;;1.58;0.60;;;;;;;;;;5051206;28;20136;-66
2023/03/07 12:16:19;;;;;;;1.58;0.68;;;;;;;;;;5048535;28;20049;-66
2023/03/07 12:18:45;;;;;;;3.47;0.75;;;;;;;;;;5051202;28;20131;-66
2023/03/07 12:21:18;;;;;;;1.65;0.77;;;;;;;;;;5046724;28;20151;-66
2023/03/07 12:23:48;;;;;;;2.40;1.98;;;;;;;;;;5050683;28;20075;-66
2023/03/07 12:26:34;;;;;;;2.30;2.10;;;;;;;;;;5043618;28;20052;-66
2023/03/07 12:29:00;;;;;;;2.75;1.75;;;;;;;;;;5030488;28;20477;-66
2023/03/07 12:31:29;;;;;;;1.48;1.23;;;;;;;;;;5033364;28;20060;-66
2023/03/07 12:34:08;;;;;;;3.40;1.88;;;;;;;;;;5043439;28;20060;-66
2023/03/07 12:36:39;;;;;;;3.50;1.50;;;;;;;;;;5042295;28;20050;-66
2023/03/07 12:39:05;;;;;;;1.77;1.40;;;;;;;;;;5047842;28;20045;-66
2023/03/07 12:41:32;;;;;;;1.85;1.10;;;;;;;;;;5047358;28;20073;-66
2023/03/07 12:44:03;;;;;;;1.08;0.63;;;;;;;;;;5051349;28;20076;-66
2023/03/07 12:46:30;;;;;;;3.20;1.42;;;;;;;;;;5047476;28;20049;-66
2023/03/07 12:49:04;;;;;;;0.77;0.73;;;;;;;;;;5046885;28;20111;-66
2023/03/07 12:51:39;;;;;;;2.88;0.90;;;;;;;;;;5046785;28;20080;-66
2023/03/07 12:54:12;;;;;;;2.42;0.93;;;;;;;;;;5046585;28;20049;-66
2023/03/07 12:56:57;;;;;;;2.08;0.77;;;;;;;;;;5047941;28;20496;-66
2023/03/07 12:59:25;;;;;;;1.08;0.80;;;;;;;;;;5052484;28;20037;-66
2023/03/07 13:01:52;;;;;;;1.27;0.80;;;;;;;;;;5040787;28;20076;-66
2023/03/07 13:04:26;;;;;;;2.80;0.95;;;;;;;;;;5047444;28;20053;-66
2023/03/07 13:06:54;;;;;;;0.65;0.50;;;;;;;;;;5040704;28;20498;-66
2023/03/07 13:09:22;;;;;;;1.40;0.65;;;;;;;;;;5046470;28;20407;-66
2023/03/07 13:11:48;;;;;;;;;;;;;;;;;;5047065;28;20081;-66
2023/03/07 13:14:34;;;;;;;1.20;1.00;;;;;;;;;;5047191;28;19925;-66
2023/03/07 13:17:01;;;;;;;1.60;1.00;;;;;;;;;;5026128;28;20509;-66
2023/03/07 13:19:33;;;;;;;2.20;1.00;;;;;;;;;;5041731;28;20136;-66
2023/03/07 13:22:00;;;;;;;2.78;1.38;;;;;;;;;;5038726;28;20057;-66
2023/03/07 13:24:38;;;;;;;1.93;1.17;;;;;;;;;;5041637;28;20063;-66
2023/03/07 13:27:13;;;;;;;2.35;0.93;;;;;;;;;;5053145;28;20063;-66
2023/03/07 13:30:03;;;;;;;2.72;1.20;;;;;;;;;;5043813;28;20055;-66
2023/03/07 13:32:50;;;;;;;1.75;0.88;;;;;;;;;;5033532;28;20059;-66
2023/03/07 13:35:23;;;;;;;2.78;0.77;;;;;;;;;;5034239;28;20059;-66
2023/03/07 13:37:51;;;;;;;1.95;0.93;;;;;;;;;;5041748;28;20164;-65
2023/03/07 13:40:20;;;;;;;4.55;1.40;;;;;;;;;;5050033;28;20560;-66
2023/03/07 13:42:47;;;;;;;4.95;1.77;;;;;;;;;;5047273;28;20151;-66
2023/03/07 13:45:32;;;;;;;21.38;11.65;;;;;;;;;;5031468;28;20041;-66
2023/03/07 13:47:59;;;;;;;7.25;4.25;;;;;;;;;;5031849;28;20103;-66
2023/03/07 13:50:34;;;;;;;3.83;2.13;;;;;;;;;;5036174;28;20412;-66
2023/03/07 13:53:02;;;;;;;2.83;1.40;;;;;;;;;;5041038;28;20128;-66
2023/03/07 13:55:31;;;;;;;2.97;1.33;;;;;;;;;;5052621;28;20053;-66
2023/03/07 13:58:03;;;;;;;1.60;0.88;;;;;;;;;;5044248;28;20614;-66
2023/03/07 14:00:31;;;;;;;0.95;0.90;;;;;;;;;;5052338;28;20049;-66
2023/03/07 14:02:58;;;;;;;2.00;1.20;;;;;;;;;;5038731;28;20219;-66
2023/03/07 14:05:24;;;;;;;2.50;1.25;;;;;;;;;;5052825;28;20049;-66
2023/03/07 14:07:52;;;;;;;4.07;1.30;;;;;;;;;;5037024;28;20053;-66
2023/03/07 14:10:29;;;;;;;1.80;1.40;;;;;;;;;;5052766;28;20532;-66
2023/03/07 14:13:05;;;;;;;2.00;1.25;;;;;;;;;;5034154;28;20059;-66
2023/03/07 14:15:44;;;;;;;1.90;0.95;;;;;;;;;;5052166;28;20512;-66
2023/03/07 14:18:10;;;;;;;3.15;1.05;;;;;;;;;;5042082;28;20049;-66
2023/03/07 14:20:46;;;;;;;2.28;1.20;;;;;;;;;;5041521;28;20052;-66
2023/03/07 14:23:19;;;;;;;2.97;1.00;;;;;;;;;;5045093;28;20078;-66
2023/03/07 14:25:47;;;;;;;2.30;1.25;;;;;;;;;;5052191;28;20045;-66
2023/03/07 14:28:19;;;;;;;3.47;0.85;;;;;;;;;;5048185;28;20118;-66
2023/03/07 14:30:57;;;;;;;1.30;0.90;;;;;;;;;;5052346;28;20053;-66
2023/03/07 14:33:38;;;;;;;2.05;1.00;;;;;;;;;;5046773;28;20053;-66
2023/03/07 14:36:33;;;;;;;2.60;0.85;;;;;;;;;;5051693;28;20128;-66
2023/03/07 14:39:03;;;;;;;3.17;1.42;;;;;;;;;;5045992;28;20053;-66
2023/03/07 14:41:36;;;;;;;6.30;4.25;;;;;;;;;;5043989;28;20132;-66
2023/03/07 14:44:18;;;;;;;5.43;4.45;;;;;;;;;;5046726;28;20045;-66
2023/03/07 14:46:53;;;;;;;4.10;3.70;;;;;;;;;;5045848;28;20408;-66
2023/03/07 14:49:35;;;;;;;1.58;1.08;;;;;;;;;;5051880;28;20060;-66
2023/03/07 14:52:02;;;;;;;1.85;0.85;;;;;;;;;;5042518;28;20053;-66
2023/03/07 14:54:31;;;;;;;3.13;1.27;;;;;;;;;;5050377;28;20055;-66